createdAt,value
2023-03-23T15:59:25.080Z,53776.00
2023-03-23T16:01:51.420Z,53792.53
2023-03-23T16:04:18.752Z,53780.13
2023-03-23T16:06:45.178Z,53800.81
2023-03-23T16:09:16.048Z,53802.88
2023-03-23T16:11:42.604Z,53790.47
2023-03-23T16:14:08.927Z,53804.94
2023-03-23T16:16:39.391Z,53798.72
2023-03-23T16:19:06.152Z,53827.69
2023-03-23T16:21:32.598Z,53740.84
2023-03-23T16:23:59.008Z,53823.53
2023-03-23T16:26:25.669Z,53813.19
2023-03-23T16:28:55.285Z,53790.47
2023-03-23T16:31:26.378Z,53817.34
2023-03-23T16:33:52.678Z,53815.28
2023-03-23T16:36:19.011Z,53821.47
2023-03-23T16:38:49.102Z,53860.75
2023-03-23T16:41:16.183Z,53819.41
2023-03-23T16:43:42.500Z,53829.75
2023-03-23T16:46:09.838Z,53827.69
2023-03-23T16:48:36.970Z,53800.81
2023-03-23T16:51:03.259Z,53798.72
2023-03-23T16:53:29.580Z,53842.16
2023-03-23T16:55:57.804Z,53823.53
2023-03-23T16:58:24.528Z,53815.28
2023-03-23T17:00:51.504Z,53833.88
2023-03-23T17:03:18.784Z,53802.88
2023-03-23T17:05:45.724Z,53823.53
2023-03-23T17:08:12.467Z,53765.66
2023-03-23T17:10:39.363Z,53842.16
2023-03-23T17:13:05.795Z,53869.03
2023-03-23T17:15:35.551Z,53829.75
2023-03-23T17:18:01.958Z,53844.22
2023-03-23T17:20:28.265Z,53819.41
2023-03-23T17:22:54.596Z,53856.63
2023-03-23T17:25:20.916Z,53840.09
2023-03-23T17:27:47.264Z,53862.81
2023-03-23T17:30:13.588Z,53856.63
2023-03-23T17:32:39.977Z,53848.34
2023-03-23T17:35:06.587Z,53877.31
2023-03-23T17:37:33.378Z,53881.44
2023-03-23T17:39:59.875Z,53902.13
2023-03-23T17:42:26.932Z,53935.19
2023-03-23T17:44:53.301Z,53935.19
2023-03-23T17:47:19.640Z,53933.13
2023-03-23T17:49:46.500Z,54026.16
2023-03-23T17:52:12.847Z,54059.25
2023-03-23T17:54:39.146Z,54146.09
2023-03-23T17:57:05.922Z,54245.34
2023-03-23T17:59:32.286Z,54334.28
2023-03-23T18:01:58.706Z,54373.56
2023-03-23T18:04:26.906Z,54491.44
2023-03-23T18:06:57.077Z,54601.03
2023-03-23T18:09:24.159Z,54675.50
2023-03-23T18:11:50.825Z,54667.22
2023-03-23T18:14:17.472Z,54557.63
2023-03-23T18:16:43.882Z,54576.22
2023-03-23T18:19:10.525Z,54539.00
2023-03-23T18:21:36.927Z,54344.63
2023-03-23T18:24:03.552Z,54354.94
2023-03-23T18:26:29.882Z,54340.47
2023-03-23T18:28:56.469Z,54323.94
2023-03-23T18:31:23.025Z,54214.34
2023-03-23T18:33:53.927Z,54158.50
2023-03-23T18:36:21.117Z,54121.28
2023-03-23T18:38:47.806Z,54119.22
2023-03-23T18:41:14.206Z,54034.44
2023-03-23T18:43:40.997Z,54013.75
2023-03-23T18:46:07.717Z,54017.91
2023-03-23T18:48:34.165Z,53986.88
2023-03-23T18:51:00.955Z,53943.47
2023-03-23T18:53:27.460Z,53908.31
2023-03-23T18:55:54.023Z,53933.13
2023-03-23T18:58:20.541Z,53883.50
2023-03-23T19:00:46.957Z,53893.84
2023-03-23T19:03:13.710Z,53869.03
2023-03-23T19:05:40.731Z,53835.94
2023-03-23T19:08:08.115Z,53827.69
2023-03-23T19:10:38.428Z,53862.81
2023-03-23T19:13:04.794Z,53815.28
2023-03-23T19:15:31.229Z,53823.53
2023-03-23T19:17:57.671Z,53821.47
2023-03-23T19:22:56.640Z,53819.41
2023-03-23T19:25:23.293Z,53811.13
2023-03-23T19:28:38.467Z,53821.47
2023-03-23T19:30:36.433Z,53811.13
2023-03-23T19:33:03.104Z,53782.19
2023-03-23T19:35:29.981Z,53788.41
2023-03-23T19:37:56.377Z,53807.00
2023-03-23T19:42:52.708Z,53804.94
2023-03-23T19:45:19.117Z,53800.81
2023-03-23T19:47:45.799Z,53782.19
2023-03-23T19:50:12.323Z,53798.72
2023-03-23T19:52:38.614Z,53794.59
2023-03-23T19:55:05.080Z,53757.38
2023-03-23T19:57:31.883Z,53761.50
2023-03-23T19:59:59.233Z,53782.19
2023-03-23T20:02:25.920Z,53784.25
2023-03-23T20:04:52.437Z,53794.59
2023-03-23T20:07:20.497Z,53798.72
2023-03-23T20:09:48.563Z,53788.41
2023-03-23T20:12:14.986Z,53817.34
2023-03-23T20:14:44.180Z,53790.47
2023-03-23T20:17:11.741Z,53773.91
2023-03-23T20:19:41.592Z,53792.53
2023-03-23T20:22:07.983Z,53792.53
2023-03-23T20:24:34.315Z,53786.31
2023-03-23T20:27:01.203Z,53796.66
2023-03-23T20:29:31.576Z,53798.72
2023-03-23T20:31:58.115Z,53751.19
2023-03-23T20:34:31.077Z,53796.66
2023-03-23T20:36:58.162Z,53788.41
2023-03-23T20:39:25.547Z,53751.19
2023-03-23T20:41:54.387Z,53782.19
2023-03-23T20:44:23.059Z,53807.00
2023-03-23T20:46:50.043Z,53794.59
2023-03-23T20:49:16.629Z,53811.13
2023-03-23T20:51:43.619Z,53761.50
2023-03-23T20:54:10.149Z,53786.31
2023-03-23T20:56:37.227Z,53747.03
2023-03-23T20:59:03.867Z,53767.72
2023-03-23T21:01:34.980Z,53755.31
2023-03-23T21:04:03.001Z,53802.88
2023-03-23T21:06:30.859Z,53800.81
2023-03-23T21:08:57.343Z,53780.13
2023-03-23T21:11:24.466Z,53792.53
2023-03-23T21:13:51.054Z,53831.81
2023-03-23T21:16:18.825Z,53840.09
2023-03-23T21:18:45.954Z,53819.41
2023-03-23T21:21:14.808Z,53825.59
2023-03-23T21:23:46.751Z,53860.75
2023-03-23T21:26:16.533Z,53885.56
2023-03-23T21:28:43.425Z,53900.03
2023-03-23T21:31:09.745Z,53929.00
2023-03-23T21:33:36.157Z,53910.38
2023-03-23T21:36:02.785Z,53941.41
2023-03-23T21:38:29.334Z,53933.13
2023-03-23T21:40:56.364Z,53922.78
2023-03-23T21:43:27.372Z,53943.47
2023-03-23T21:46:03.783Z,53991.03
2023-03-23T21:48:30.091Z,53947.59
2023-03-23T21:50:56.499Z,53957.94
2023-03-23T21:53:23.253Z,53984.81
2023-03-23T21:55:53.627Z,53986.88
2023-03-23T21:58:24.277Z,53999.28
2023-03-23T22:00:53.837Z,54009.63
2023-03-23T22:03:22.665Z,54017.91
2023-03-23T22:05:54.335Z,54069.59
2023-03-23T22:08:21.410Z,54096.47
2023-03-23T22:11:00.502Z,54100.63
2023-03-23T22:13:31.662Z,54119.22
2023-03-23T22:15:58.860Z,54133.69
2023-03-23T22:18:25.865Z,54133.69
2023-03-23T22:20:54.731Z,54129.56
2023-03-23T22:23:21.120Z,54146.09
2023-03-23T22:25:47.614Z,54177.13
2023-03-23T22:28:13.914Z,54172.97
2023-03-23T22:30:40.555Z,54166.78
2023-03-23T22:33:07.015Z,54230.88
2023-03-23T22:35:33.771Z,54261.91
2023-03-23T22:38:02.629Z,54338.41
2023-03-23T22:40:29.778Z,54417.00
2023-03-23T22:42:56.319Z,54528.66
2023-03-23T22:45:24.537Z,54617.59
2023-03-23T22:47:50.903Z,54644.47
2023-03-23T22:50:17.255Z,54729.25
2023-03-23T22:52:43.902Z,54807.84
2023-03-23T22:55:10.277Z,54975.38
2023-03-23T22:57:36.777Z,55087.06
2023-03-23T23:00:13.993Z,55219.41
2023-03-23T23:02:43.463Z,55362.13
2023-03-23T23:05:10.549Z,55523.47
2023-03-23T23:07:36.953Z,55765.50
2023-03-23T23:10:03.895Z,55991.00
2023-03-23T23:12:31.615Z,56251.66
2023-03-23T23:14:58.659Z,56361.31
2023-03-23T23:17:25.585Z,56611.66
2023-03-23T23:19:53.287Z,56777.19
2023-03-23T23:22:19.722Z,57042.03
2023-03-23T23:24:46.225Z,57277.94
2023-03-23T23:27:12.733Z,57600.78
2023-03-23T23:29:40.487Z,57867.78
2023-03-23T23:32:06.908Z,58246.56
2023-03-23T23:34:34.631Z,58447.34
2023-03-23T23:37:03.426Z,58741.28
2023-03-23T23:39:30.362Z,58807.53
2023-03-23T23:41:59.152Z,58706.09
2023-03-23T23:44:25.520Z,58855.16
2023-03-23T23:46:51.879Z,59101.53
2023-03-23T23:49:18.162Z,59499.06
2023-03-23T23:51:44.698Z,59795.16
2023-03-23T23:54:11.076Z,60242.44
2023-03-23T23:56:37.456Z,60314.94
2023-03-23T23:59:03.893Z,60594.53
